Time;durP1;ratioP1;P1;durP2;ratioP2;P2;SDS_P1;SDS_P2;PMS_P1;PMS_P2;Temp;Humidity;BMP_temperature;BMP_pressure;BME280_temperature;BME280_humidity;BME280_pressure;Samples;Min_cycle;Max_cycle;Signal;HPM_P1;HPM_P2
2022/01/10 00:00:10;;;;;;;46.38;21.02;;;3.80;83.60;;;;;;5056676;28;20402;-37
2022/01/10 00:02:36;;;;;;;42.25;19.90;;;3.80;83.80;;;;;;5056790;28;20017;-38
2022/01/10 00:05:02;;;;;;;40.15;20.17;;;3.80;83.80;;;;;;5056565;28;20029;-37
2022/01/10 00:07:27;;;;;;;45.80;20.10;;;3.80;83.80;;;;;;5056136;28;20020;-38
2022/01/10 00:09:53;;;;;;;44.25;18.80;;;3.80;83.80;;;;;;5056609;28;20128;-38
2022/01/10 00:12:19;;;;;;;36.65;17.27;;;3.80;84.40;;;;;;5056392;28;20052;-38
2022/01/10 00:14:44;;;;;;;34.08;17.48;;;3.80;83.80;;;;;;5056034;28;20159;-37
2022/01/10 00:17:10;;;;;;;38.30;18.33;;;3.70;83.70;;;;;;5056287;28;20021;-37
2022/01/10 00:19:35;;;;;;;29.35;15.23;;;3.80;83.80;;;;;;5056269;28;20322;-37
2022/01/10 00:22:02;;;;;;;36.83;16.20;;;3.80;83.70;;;;;;5056113;28;20028;-38
2022/01/10 00:24:28;;;;;;;33.75;16.08;;;3.80;84.40;;;;;;5056066;28;20425;-38
2022/01/10 00:26:53;;;;;;;31.92;15.77;;;3.80;83.80;;;;;;5056367;28;20032;-38
2022/01/10 00:29:19;;;;;;;34.15;15.77;;;3.80;83.70;;;;;;5056091;28;20036;-37
2022/01/10 00:31:44;;;;;;;36.08;17.00;;;3.80;83.70;;;;;;5055598;28;20104;-38
2022/01/10 00:34:10;;;;;;;36.80;17.08;;;3.80;83.60;;;;;;5056112;28;20036;-37
2022/01/10 00:36:36;;;;;;;40.42;18.70;;;3.80;83.60;;;;;;5055869;28;20029;-38
2022/01/10 00:39:04;;;;;;;33.05;17.02;;;3.80;83.50;;;;;;5056429;28;20364;-37
2022/01/10 00:41:29;;;;;;;34.78;16.83;;;3.80;83.60;;;;;;5055619;28;20168;-37
2022/01/10 00:43:55;;;;;;;34.22;17.83;;;3.80;83.70;;;;;;5056007;28;20039;-39
2022/01/10 00:46:22;;;;;;;46.28;18.42;;;3.80;83.80;;;;;;5055895;28;20428;-38
2022/01/10 00:48:48;;;;;;;37.85;18.48;;;3.80;83.80;;;;;;5055686;28;20053;-37
2022/01/10 00:51:14;;;;;;;37.45;17.65;;;3.80;83.70;;;;;;5055843;28;20365;-38
2022/01/10 00:53:39;;;;;;;44.53;20.17;;;3.80;83.80;;;;;;5056036;28;20032;-38
2022/01/10 00:56:08;;;;;;;36.58;17.70;;;3.80;83.80;;;;;;5055339;28;20476;-38
2022/01/10 00:58:35;;;;;;;42.22;19.65;;;3.70;83.80;;;;;;5055849;28;20032;-37
2022/01/10 01:01:00;;;;;;;38.25;19.30;;;3.70;83.80;;;;;;5055479;28;20017;-37
2022/01/10 01:03:26;;;;;;;38.20;18.88;;;3.70;83.80;;;;;;5055600;28;20119;-37
2022/01/10 01:05:51;;;;;;;44.58;19.40;;;3.70;83.80;;;;;;5055506;28;20017;-38
2022/01/10 01:08:17;;;;;;;59.63;25.08;;;3.80;83.90;;;;;;5055755;28;20091;-38
2022/01/10 01:13:38;;;;;;;60.03;24.75;;;3.70;83.90;;;;;;5056109;28;20036;-38
2022/01/10 01:24:02;;;;;;;52.55;22.55;;;3.70;84.00;;;;;;5059695;28;20329;-38
2022/01/10 01:26:29;;;;;;;51.33;23.98;;;3.80;84.10;;;;;;5059886;28;20090;-37
2022/01/10 01:28:54;;;;;;;51.08;24.63;;;3.70;84.00;;;;;;5059937;28;20040;-37
2022/01/10 01:31:20;;;;;;;63.20;25.83;;;3.70;84.00;;;;;;5059201;28;20379;-38
2022/01/10 01:33:46;;;;;;;62.53;26.45;;;3.70;84.10;;;;;;5059825;28;20494;-37
2022/01/10 01:36:12;;;;;;;62.17;24.95;;;3.70;84.10;;;;;;5059266;28;20055;-38
2022/01/10 01:38:40;;;;;;;58.03;24.80;;;3.70;84.10;;;;;;5059306;28;20064;-38
2022/01/10 01:41:22;;;;;;;50.22;23.58;;;3.70;84.00;;;;;;5059043;28;20424;-38
2022/01/10 01:43:50;;;;;;;43.85;21.63;;;3.80;84.00;;;;;;5059277;28;20032;-38
2022/01/10 01:46:16;;;;;;;43.42;22.25;;;3.70;83.90;;;;;;5058818;28;20119;-37
2022/01/10 01:48:42;;;;;;;44.00;22.08;;;3.70;83.90;;;;;;5059262;28;20072;-37
2022/01/10 01:51:09;;;;;;;45.78;22.27;;;3.70;83.80;;;;;;5058625;28;20021;-38
2022/01/10 01:53:36;;;;;;;51.83;23.45;;;3.80;83.90;;;;;;5059348;28;20421;-38
2022/01/10 01:56:04;;;;;;;49.70;23.35;;;3.80;83.80;;;;;;5058571;28;20021;-38
2022/01/10 01:58:31;;;;;;;51.47;23.98;;;3.80;83.80;;;;;;5059201;28;20021;-37
2022/01/10 02:00:56;;;;;;;55.17;25.58;;;3.80;83.70;;;;;;5057488;28;20428;-37
2022/01/10 02:03:22;;;;;;;51.72;25.60;;;3.80;83.60;;;;;;5058725;28;20021;-38
2022/01/10 02:05:48;;;;;;;59.70;26.85;;;3.80;83.80;;;;;;5058509;28;20033;-38
2022/01/10 02:08:13;;;;;;;53.92;26.30;;;3.80;83.90;;;;;;5058896;28;20028;-38
2022/01/10 02:10:41;;;;;;;50.53;25.85;;;3.70;84.00;;;;;;5059025;28;20037;-37
2022/01/10 02:13:07;;;;;;;48.47;24.27;;;3.70;84.10;;;;;;5058894;28;20367;-38
2022/01/10 02:15:59;;;;;;;43.10;22.73;;;3.70;84.20;;;;;;5058826;28;20033;-39
2022/01/10 02:18:25;;;;;;;54.40;26.23;;;3.70;84.30;;;;;;5058648;28;20033;-37
2022/01/10 02:20:51;;;;;;;50.92;24.92;;;3.70;84.30;;;;;;5058239;28;20031;-37
2022/01/10 02:23:18;;;;;;;47.05;22.23;;;3.70;84.30;;;;;;5058647;28;20052;-38
2022/01/10 02:25:45;;;;;;;49.85;24.85;;;3.70;84.30;;;;;;5058510;28;20037;-38
2022/01/10 02:28:11;;;;;;;43.13;22.00;;;3.70;84.40;;;;;;5058601;28;20029;-39
2022/01/10 02:30:38;;;;;;;45.28;21.40;;;3.60;84.50;;;;;;5057932;28;20325;-38
2022/01/10 02:33:04;;;;;;;32.72;16.85;;;3.60;84.70;;;;;;5058328;28;20033;-37
2022/01/10 02:35:37;;;;;;;29.90;16.45;;;3.60;84.80;;;;;;5058312;28;20033;-37
2022/01/10 02:38:03;;;;;;;37.85;18.52;;;3.60;84.80;;;;;;5058601;28;20053;-38
2022/01/10 02:40:31;;;;;;;39.33;20.15;;;3.70;84.90;;;;;;5058377;28;20100;-37
2022/01/10 02:42:57;;;;;;;36.47;18.25;;;3.70;84.80;;;;;;5058189;28;20421;-37
2022/01/10 02:45:24;;;;;;;35.38;18.80;;;3.70;85.10;;;;;;5058213;28;20409;-38
2022/01/10 02:47:51;;;;;;;28.30;16.75;;;3.70;84.50;;;;;;5058062;28;20413;-38
2022/01/10 02:50:18;;;;;;;27.88;14.70;;;3.60;84.60;;;;;;5057436;28;20060;-38
2022/01/10 02:52:44;;;;;;;22.40;12.15;;;3.60;84.70;;;;;;5058143;28;20114;-37
2022/01/10 02:55:11;;;;;;;22.67;11.40;;;3.60;84.70;;;;;;5057884;28;20354;-38
2022/01/10 02:57:37;;;;;;;18.70;10.73;;;3.60;84.80;;;;;;5058177;28;20299;-38
2022/01/10 03:00:16;;;;;;;19.60;11.35;;;3.60;84.90;;;;;;5058042;28;20029;-38
2022/01/10 03:02:44;;;;;;;21.50;11.82;;;3.60;84.90;;;;;;5058345;28;20067;-38
2022/01/10 03:05:10;;;;;;;18.00;10.32;;;3.60;85.00;;;;;;5057759;28;20044;-37
2022/01/10 03:07:37;;;;;;;21.88;12.48;;;3.50;84.90;;;;;;5057533;28;20159;-37
2022/01/10 03:10:05;;;;;;;22.92;13.10;;;3.50;84.90;;;;;;5057739;28;20440;-38
2022/01/10 03:12:31;;;;;;;22.13;12.32;;;3.50;85.00;;;;;;5057913;28;20444;-37
2022/01/10 03:14:58;;;;;;;23.50;12.85;;;3.50;85.10;;;;;;5057561;28;20417;-37
2022/01/10 03:17:25;;;;;;;21.50;12.27;;;3.50;85.20;;;;;;5057808;28;20440;-37
2022/01/10 03:19:51;;;;;;;23.85;12.75;;;3.50;85.10;;;;;;5057472;28;20112;-37
2022/01/10 03:22:16;;;;;;;25.95;14.15;;;3.40;85.20;;;;;;5057207;28;20116;-38
2022/01/10 03:24:42;;;;;;;23.95;13.25;;;3.40;85.30;;;;;;5057285;28;20037;-37
2022/01/10 03:27:08;;;;;;;26.25;13.73;;;3.40;85.30;;;;;;5057394;28;20033;-39
2022/01/10 03:29:34;;;;;;;27.35;14.20;;;3.40;85.30;;;;;;5057255;28;20029;-38
2022/01/10 03:32:01;;;;;;;27.02;13.70;;;3.40;85.40;;;;;;5057415;28;20044;-38
2022/01/10 03:34:28;;;;;;;28.00;14.57;;;3.40;85.50;;;;;;5057132;28;20033;-38
2022/01/10 03:36:54;;;;;;;30.70;15.52;;;3.40;86.10;;;;;;5056936;28;20051;-38
2022/01/10 03:39:20;;;;;;;32.88;15.93;;;3.30;85.50;;;;;;5057025;28;20109;-38
2022/01/10 03:41:46;;;;;;;27.98;15.07;;;3.30;85.50;;;;;;5056209;28;20052;-37
2022/01/10 03:44:12;;;;;;;30.95;15.20;;;3.30;85.50;;;;;;5056848;28;20067;-37
2022/01/10 03:46:37;;;;;;;35.22;15.60;;;3.30;85.60;;;;;;5056985;28;20074;-38
2022/01/10 03:49:04;;;;;;;26.75;14.00;;;3.30;85.80;;;;;;5056540;28;20056;-38
2022/01/10 03:51:30;;;;;;;31.60;16.23;;;3.30;86.00;;;;;;5056504;28;20063;-38
2022/01/10 03:53:56;;;;;;;31.85;15.82;;;3.30;86.00;;;;;;5056770;28;20048;-38
2022/01/10 03:56:24;;;;;;;29.17;14.75;;;3.30;85.90;;;;;;5056259;28;20024;-37
2022/01/10 03:58:50;;;;;;;28.67;14.82;;;3.30;85.90;;;;;;5056806;28;20036;-37
2022/01/10 04:01:15;;;;;;;31.88;15.40;;;3.30;85.90;;;;;;5055341;28;20025;-38
2022/01/10 04:03:42;;;;;;;31.17;15.95;;;3.30;85.80;;;;;;5056857;28;20029;-37
2022/01/10 04:06:08;;;;;;;28.67;14.95;;;3.30;85.80;;;;;;5056406;28;20083;-38
2022/01/10 04:08:35;;;;;;;27.67;14.98;;;3.30;85.80;;;;;;5056736;28;20044;-37
2022/01/10 04:11:01;;;;;;;31.73;15.60;;;3.20;85.80;;;;;;5056137;28;20029;-38
2022/01/10 04:13:27;;;;;;;33.45;16.92;;;3.20;85.80;;;;;;5056711;28;20025;-38
2022/01/10 04:15:53;;;;;;;30.98;15.45;;;3.20;85.80;;;;;;5056243;28;20090;-38
2022/01/10 04:18:19;;;;;;;31.45;15.95;;;3.20;86.00;;;;;;5056502;28;20393;-38
2022/01/10 04:20:46;;;;;;;30.83;16.20;;;3.20;86.10;;;;;;5056268;28;20025;-37
2022/01/10 04:23:13;;;;;;;34.58;16.10;;;3.20;86.10;;;;;;5055987;28;20032;-37
2022/01/10 04:25:39;;;;;;;35.45;16.88;;;3.10;86.10;;;;;;5056197;28;20108;-37
2022/01/10 04:28:05;;;;;;;33.60;17.20;;;3.10;86.30;;;;;;5056173;28;20032;-37
2022/01/10 04:30:31;;;;;;;33.25;17.52;;;3.10;86.50;;;;;;5056177;28;20037;-37
2022/01/10 04:32:58;;;;;;;33.10;17.08;;;3.10;86.60;;;;;;5056209;28;20325;-37
2022/01/10 04:35:24;;;;;;;35.78;18.10;;;3.10;86.60;;;;;;5055823;28;20041;-37
2022/01/10 04:37:50;;;;;;;33.22;17.45;;;3.10;86.60;;;;;;5055911;28;20118;-38
2022/01/10 04:40:16;;;;;;;36.63;18.00;;;3.00;86.50;;;;;;5055931;28;20065;-38
2022/01/10 04:42:42;;;;;;;36.63;18.73;;;3.00;86.60;;;;;;5056047;28;20416;-38
2022/01/10 04:45:09;;;;;;;36.25;18.45;;;3.00;86.70;;;;;;5055933;28;20061;-37
2022/01/10 04:47:34;;;;;;;32.92;17.65;;;3.00;86.80;;;;;;5055973;28;20025;-38
2022/01/10 04:52:26;;;;;;;37.70;19.00;;;3.00;86.80;;;;;;5055817;28;20033;-38
2022/01/10 04:54:52;;;;;;;39.47;19.05;;;3.00;86.70;;;;;;5055825;28;20316;-37
2022/01/10 04:57:18;;;;;;;36.78;19.10;;;3.00;86.90;;;;;;5055809;28;20112;-39
2022/01/10 04:59:43;;;;;;;37.38;18.30;;;3.00;86.90;;;;;;5055619;28;20032;-37
2022/01/10 05:02:10;;;;;;;35.13;17.67;;;3.00;86.90;;;;;;5055500;28;20111;-37
2022/01/10 05:04:36;;;;;;;33.63;17.33;;;3.00;86.80;;;;;;5055713;28;20083;-37
2022/01/10 05:07:02;;;;;;;35.30;18.52;;;3.00;86.70;;;;;;5055753;28;20036;-38
2022/01/10 05:09:28;;;;;;;34.30;17.08;;;3.00;86.70;;;;;;5055267;28;20447;-37
2022/01/10 05:11:54;;;;;;;35.10;17.08;;;3.00;86.70;;;;;;5055552;28;20041;-38
2022/01/10 05:14:19;;;;;;;36.00;18.13;;;3.00;86.70;;;;;;5055787;28;20373;-37
2022/01/10 05:16:45;;;;;;;35.05;18.63;;;3.00;86.70;;;;;;5055689;28;20028;-38
2022/01/10 05:19:11;;;;;;;40.15;18.65;;;3.00;86.60;;;;;;5055233;28;20037;-38
2022/01/10 05:21:37;;;;;;;33.05;17.08;;;3.00;86.50;;;;;;5055294;28;20115;-38
2022/01/10 05:24:03;;;;;;;38.42;18.88;;;3.00;86.50;;;;;;5055403;28;20025;-38
2022/01/10 05:26:28;;;;;;;38.35;18.35;;;3.00;86.50;;;;;;5055287;28;20025;-37
2022/01/10 05:28:57;;;;;;;33.50;17.42;;;3.00;86.40;;;;;;5055514;28;20397;-37
2022/01/10 05:31:22;;;;;;;37.55;18.55;;;3.00;86.40;;;;;;5055234;28;20120;-38
2022/01/10 05:33:49;;;;;;;40.70;18.40;;;3.00;86.60;;;;;;5055308;28;20103;-38
2022/01/10 05:36:15;;;;;;;33.67;16.83;;;3.00;86.70;;;;;;5054732;28;20029;-37
2022/01/10 05:38:41;;;;;;;34.80;18.30;;;2.90;86.70;;;;;;5055145;28;20108;-38
2022/01/10 05:41:07;;;;;;;39.92;19.63;;;3.00;86.70;;;;;;5054865;28;20037;-37
2022/01/10 05:43:33;;;;;;;37.50;18.77;;;2.90;86.60;;;;;;5055119;28;20028;-37
2022/01/10 05:45:58;;;;;;;39.03;19.15;;;2.90;86.70;;;;;;5054935;28;20032;-37
2022/01/10 05:48:30;;;;;;;38.00;18.20;;;3.00;86.80;;;;;;5054893;28;20319;-37
2022/01/10 05:50:56;;;;;;;40.13;18.42;;;3.00;86.70;;;;;;5055164;28;20337;-38
2022/01/10 05:53:22;;;;;;;33.33;17.13;;;3.00;86.80;;;;;;5055099;28;20029;-37
2022/01/10 05:55:48;;;;;;;38.45;19.02;;;3.00;86.50;;;;;;5054860;28;20048;-38
2022/01/10 05:58:15;;;;;;;36.70;17.40;;;2.90;86.50;;;;;;5054996;28;20021;-38
2022/01/10 06:00:41;;;;;;;32.38;16.70;;;2.90;86.50;;;;;;5054852;28;20372;-38
2022/01/10 06:03:07;;;;;;;34.67;16.30;;;2.90;86.30;;;;;;5055126;28;20025;-38
2022/01/10 06:05:34;;;;;;;33.15;16.15;;;2.90;86.40;;;;;;5057163;28;20397;-38
2022/01/10 06:08:02;;;;;;;34.25;16.73;;;2.80;86.40;;;;;;5058231;28;20182;-38
2022/01/10 06:10:29;;;;;;;28.63;15.88;;;2.80;86.60;;;;;;5058176;28;20362;-37
2022/01/10 06:12:55;;;;;;;44.10;17.65;;;2.80;86.60;;;;;;5058319;28;20032;-38
2022/01/10 06:15:21;;;;;;;35.80;19.05;;;2.80;86.60;;;;;;5058527;28;20043;-37
2022/01/10 06:17:47;;;;;;;32.45;17.80;;;2.80;86.60;;;;;;5058388;28;20025;-38
2022/01/10 06:20:13;;;;;;;35.20;17.85;;;2.80;86.60;;;;;;5058425;28;20298;-37
2022/01/10 06:22:39;;;;;;;34.35;17.55;;;2.80;86.80;;;;;;5058009;28;20409;-37
2022/01/10 06:25:07;;;;;;;33.80;16.65;;;2.80;86.90;;;;;;5058127;28;20040;-37
2022/01/10 06:27:32;;;;;;;33.35;17.27;;;2.80;86.90;;;;;;5058108;28;20025;-37
2022/01/10 06:29:58;;;;;;;37.58;17.85;;;2.80;86.60;;;;;;5058191;28;20040;-38
2022/01/10 06:32:24;;;;;;;33.65;17.00;;;2.80;86.60;;;;;;5056962;28;20112;-40
2022/01/10 06:34:50;;;;;;;34.95;17.00;;;2.80;86.60;;;;;;5057802;28;20043;-37
2022/01/10 06:37:16;;;;;;;36.22;17.13;;;2.80;86.60;;;;;;5058018;28;20396;-38
2022/01/10 06:39:42;;;;;;;38.63;19.02;;;2.80;86.40;;;;;;5057887;28;20120;-38
2022/01/10 06:42:08;;;;;;;38.40;18.65;;;2.80;86.40;;;;;;5057715;28;20112;-38
2022/01/10 06:44:34;;;;;;;42.55;20.50;;;2.80;86.30;;;;;;5057721;28;20036;-37
2022/01/10 06:46:59;;;;;;;48.25;22.35;;;2.80;86.20;;;;;;5057663;28;20492;-37
2022/01/10 06:49:25;;;;;;;45.30;20.92;;;2.80;86.10;;;;;;5057066;28;20088;-37
2022/01/10 06:51:51;;;;;;;46.08;22.00;;;2.80;86.00;;;;;;5057484;28;20029;-37
2022/01/10 06:54:16;;;;;;;54.15;23.52;;;2.80;86.20;;;;;;5057615;28;20052;-37
2022/01/10 06:56:42;;;;;;;50.83;22.08;;;2.80;86.20;;;;;;5057263;28;20448;-38
2022/01/10 06:59:08;;;;;;;55.22;22.80;;;2.80;86.10;;;;;;5057397;28;20064;-37
2022/01/10 07:01:34;;;;;;;48.90;21.77;;;2.80;86.20;;;;;;5057293;28;20104;-38
2022/01/10 07:04:00;;;;;;;51.17;23.20;;;2.80;86.20;;;;;;5057684;28;20036;-38
2022/01/10 07:06:26;;;;;;;52.88;22.95;;;2.80;86.20;;;;;;5057328;28;20029;-38
2022/01/10 07:08:51;;;;;;;51.17;22.73;;;2.80;86.20;;;;;;5057748;28;20036;-38
2022/01/10 07:11:17;;;;;;;46.88;20.60;;;2.80;86.10;;;;;;5057136;28;20053;-38
2022/01/10 07:13:43;;;;;;;46.28;21.83;;;2.80;86.10;;;;;;5057516;28;20040;-37
2022/01/10 07:16:09;;;;;;;44.17;20.45;;;2.80;86.10;;;;;;5057068;28;20425;-37
2022/01/10 07:18:34;;;;;;;49.22;21.52;;;2.80;86.00;;;;;;5057438;28;20044;-37
2022/01/10 07:21:00;;;;;;;47.22;19.60;;;2.80;85.90;;;;;;5056902;28;20411;-38
2022/01/10 07:23:26;;;;;;;46.53;20.83;;;2.80;85.70;;;;;;5057308;28;20405;-38
2022/01/10 07:25:52;;;;;;;43.55;20.33;;;2.90;85.70;;;;;;5056600;28;20345;-38
2022/01/10 07:28:17;;;;;;;39.30;20.25;;;2.80;85.30;;;;;;5057232;28;20036;-37
2022/01/10 07:30:43;;;;;;;41.20;18.60;;;2.80;85.30;;;;;;5056892;28;20486;-37
2022/01/10 07:33:09;;;;;;;38.97;19.67;;;2.80;85.20;;;;;;5057228;28;20475;-38
2022/01/10 07:35:35;;;;;;;41.28;20.00;;;2.80;85.30;;;;;;5057060;28;20033;-38
2022/01/10 07:38:00;;;;;;;40.40;19.35;;;2.80;85.10;;;;;;5056933;28;20017;-38
2022/01/10 07:40:26;;;;;;;42.55;20.33;;;2.80;85.30;;;;;;5057037;28;20102;-37
2022/01/10 07:42:52;;;;;;;45.08;21.25;;;2.80;85.10;;;;;;5056814;28;20095;-38
2022/01/10 07:45:18;;;;;;;43.13;20.73;;;2.80;84.90;;;;;;5056424;28;20447;-37
2022/01/10 07:47:44;;;;;;;46.20;21.05;;;2.70;85.00;;;;;;5055650;28;20031;-37
2022/01/10 07:50:10;;;;;;;45.20;20.38;;;2.70;85.00;;;;;;5056279;28;20049;-38
2022/01/10 07:52:36;;;;;;;45.22;21.25;;;2.70;85.10;;;;;;5056453;28;20033;-38
2022/01/10 07:55:03;;;;;;;44.95;20.42;;;2.80;85.10;;;;;;5056523;28;20036;-38
2022/01/10 07:57:29;;;;;;;45.22;21.45;;;2.80;84.70;;;;;;5056392;28;20037;-38
2022/01/10 07:59:55;;;;;;;43.30;19.92;;;2.70;84.30;;;;;;5056682;28;20029;-37
2022/01/10 08:02:21;;;;;;;44.55;19.95;;;2.70;84.00;;;;;;5056286;28;20033;-38
2022/01/10 08:04:48;;;;;;;45.20;22.20;;;2.70;84.00;;;;;;5056692;28;20080;-37
2022/01/10 08:07:14;;;;;;;50.22;21.48;;;2.70;84.00;;;;;;5056643;28;20029;-38
2022/01/10 08:09:40;;;;;;;46.92;21.55;;;2.70;84.00;;;;;;5056194;28;20029;-37
2022/01/10 08:12:06;;;;;;;45.83;21.17;;;2.70;84.00;;;;;;5056336;28;20148;-38
2022/01/10 08:14:33;;;;;;;45.80;21.67;;;2.60;83.70;;;;;;5055942;28;20033;-38
2022/01/10 08:16:59;;;;;;;49.08;20.92;;;2.60;84.10;;;;;;5053323;28;20032;-38
2022/01/10 08:19:27;;;;;;;41.65;19.27;;;2.50;83.70;;;;;;5054775;28;20068;-37
2022/01/10 08:21:55;;;;;;;42.10;19.27;;;2.50;83.80;;;;;;5055950;28;20033;-37
2022/01/10 08:24:22;;;;;;;34.47;17.67;;;2.50;84.00;;;;;;5055654;28;20037;-37
2022/01/10 08:26:49;;;;;;;37.45;17.33;;;2.40;83.70;;;;;;5055988;28;20382;-37
2022/01/10 08:29:15;;;;;;;39.33;17.92;;;2.40;83.70;;;;;;5055464;28;20033;-38
2022/01/10 08:31:40;;;;;;;38.55;16.67;;;2.40;83.60;;;;;;5055659;28;20036;-37
2022/01/10 08:34:07;;;;;;;31.48;15.80;;;2.40;83.50;;;;;;5055987;28;20067;-38
2022/01/10 08:36:33;;;;;;;32.28;15.93;;;2.40;83.70;;;;;;5055490;28;20049;-38
2022/01/10 08:39:00;;;;;;;31.33;16.20;;;2.40;84.00;;;;;;5055829;28;20446;-37
2022/01/10 08:41:26;;;;;;;33.70;16.42;;;2.30;83.80;;;;;;5055180;28;20021;-37
2022/01/10 08:43:51;;;;;;;29.02;14.75;;;2.30;83.90;;;;;;5055642;28;20360;-37
2022/01/10 08:46:17;;;;;;;28.70;14.82;;;2.40;83.90;;;;;;5055299;28;20028;-38
2022/01/10 08:48:43;;;;;;;34.75;16.42;;;2.40;83.70;;;;;;5055372;28;20037;-37
2022/01/10 08:51:08;;;;;;;30.92;15.20;;;2.40;83.60;;;;;;5055168;28;20079;-38
2022/01/10 08:53:34;;;;;;;33.85;15.82;;;2.40;83.70;;;;;;5055407;28;20362;-38
2022/01/10 08:56:00;;;;;;;33.70;15.60;;;2.40;83.60;;;;;;5055258;28;20036;-37
2022/01/10 08:58:32;;;;;;;27.42;14.45;;;2.50;83.70;;;;;;5055313;28;20390;-37
2022/01/10 09:01:05;;;;;;;26.38;13.88;;;2.50;83.70;;;;;;5055037;28;20074;-37
2022/01/10 09:03:32;;;;;;;40.08;16.40;;;2.50;83.60;;;;;;5055464;28;20270;-37
2022/01/10 09:05:58;;;;;;;29.95;15.00;;;2.50;83.50;;;;;;5055088;28;20405;-38
2022/01/10 09:08:26;;;;;;;33.75;16.08;;;2.50;83.00;;;;;;5055419;28;20059;-38
2022/01/10 09:10:54;;;;;;;96.30;42.00;;;2.50;82.90;;;;;;5054038;28;20100;-37
2022/01/10 09:13:20;;;;;;;32.03;15.05;;;2.60;82.90;;;;;;5055414;28;20360;-37
2022/01/10 09:15:46;;;;;;;26.65;13.32;;;2.60;83.00;;;;;;5054904;28;20056;-37
2022/01/10 09:18:12;;;;;;;25.08;12.30;;;2.60;82.80;;;;;;5055078;28;20373;-38
2022/01/10 09:20:38;;;;;;;19.52;10.63;;;2.60;82.70;;;;;;5055283;28;20363;-38
2022/01/10 09:23:04;;;;;;;16.88;10.32;;;2.60;82.10;;;;;;5055491;28;20025;-38
2022/01/10 09:25:30;;;;;;;15.18;8.43;;;2.60;81.70;;;;;;5055377;28;20033;-37
2022/01/10 09:27:55;;;;;;;16.05;9.35;;;2.60;81.40;;;;;;5054307;28;20237;-37
2022/01/10 09:30:22;;;;;;;17.38;9.55;;;2.60;81.20;;;;;;5054471;28;20037;-37
2022/01/10 09:32:48;;;;;;;18.27;9.55;;;2.60;81.20;;;;;;5055447;28;20036;-38
2022/01/10 09:35:14;;;;;;;33.30;19.67;;;2.60;80.90;;;;;;5054998;28;20394;-37
2022/01/10 09:37:40;;;;;;;22.17;11.90;;;2.60;81.20;;;;;;5055409;28;20040;-37
2022/01/10 09:40:07;;;;;;;22.58;11.98;;;2.60;81.20;;;;;;5055378;28;20041;-37
2022/01/10 09:42:33;;;;;;;21.63;11.90;;;2.60;81.00;;;;;;5058780;28;20044;-38
2022/01/10 09:45:03;;;;;;;23.58;13.13;;;2.60;80.90;;;;;;5059128;28;20041;-38
2022/01/10 09:47:29;;;;;;;19.50;11.57;;;2.60;80.70;;;;;;5055893;28;20017;-36
2022/01/10 09:49:54;;;;;;;15.32;9.23;;;2.60;80.70;;;;;;5058147;28;20071;-39
2022/01/10 09:52:20;;;;;;;15.98;8.80;;;2.60;80.90;;;;;;5058674;28;20421;-37
2022/01/10 09:54:46;;;;;;;15.38;8.32;;;2.70;80.70;;;;;;5058201;28;20424;-40
2022/01/10 09:57:11;;;;;;;15.38;9.55;;;2.70;80.40;;;;;;5058580;28;20040;-39
2022/01/10 09:59:39;;;;;;;16.90;9.23;;;2.70;80.00;;;;;;5058683;28;20427;-37
2022/01/10 10:02:05;;;;;;;19.00;10.48;;;2.60;79.80;;;;;;5058509;28;20117;-39
2022/01/10 10:04:38;;;;;;;20.15;11.70;;;2.60;79.60;;;;;;5058027;28;20112;-36
2022/01/10 10:07:07;;;;;;;19.80;11.00;;;2.70;79.90;;;;;;5058493;28;20354;-36
2022/01/10 10:09:33;;;;;;;20.52;12.00;;;2.70;80.10;;;;;;5058293;28;20104;-36
2022/01/10 10:12:00;;;;;;;28.02;18.08;;;2.70;80.20;;;;;;5058213;28;20428;-38
2022/01/10 10:14:26;;;;;;;23.23;14.10;;;2.70;80.40;;;;;;5058427;28;20375;-36
2022/01/10 10:16:56;;;;;;;23.48;12.70;;;2.70;80.30;;;;;;5056833;28;20029;-37
2022/01/10 10:19:29;;;;;;;28.48;15.57;;;2.80;80.80;;;;;;5058252;28;20075;-36
2022/01/10 10:21:58;;;;;;;18.02;11.02;;;2.80;80.10;;;;;;5055291;28;20028;-36
2022/01/10 10:24:24;;;;;;;21.15;11.73;;;2.80;79.60;;;;;;5037822;28;20037;-36
2022/01/10 10:26:51;;;;;;;34.83;22.80;;;2.80;79.30;;;;;;5037935;28;20031;-36
2022/01/10 10:29:18;;;;;;;22.38;12.85;;;2.80;79.40;;;;;;5038021;28;20045;-36
2022/01/10 10:31:52;;;;;;;21.05;11.98;;;2.80;79.70;;;;;;5037992;28;20037;-38
2022/01/10 10:34:23;;;;;;;21.63;11.77;;;2.80;79.90;;;;;;5043723;28;20087;-34
2022/01/10 10:37:08;;;;;;;20.92;12.13;;;2.90;80.10;;;;;;5057202;28;20402;-43
2022/01/10 10:39:37;;;;;;;19.35;10.77;;;2.90;80.00;;;;;;5055424;28;20564;-34
2022/01/10 10:42:05;;;;;;;18.63;10.85;;;2.90;79.90;;;;;;5057500;28;20036;-34
2022/01/10 10:44:31;;;;;;;15.63;8.85;;;3.00;79.60;;;;;;5054828;28;20048;-34
2022/01/10 10:46:58;;;;;;;15.77;9.65;;;2.90;79.60;;;;;;5037494;28;20422;-33
2022/01/10 10:49:33;;;;;;;16.77;9.88;;;3.00;79.50;;;;;;5037434;28;20128;-34
2022/01/10 10:52:01;;;;;;;16.40;9.75;;;3.00;79.20;;;;;;5037272;28;20033;-34
2022/01/10 10:54:31;;;;;;;16.52;10.05;;;3.00;79.10;;;;;;5037682;28;20057;-35
2022/01/10 10:57:01;;;;;;;16.33;9.57;;;3.00;79.20;;;;;;5037681;28;20029;-36
2022/01/10 10:59:31;;;;;;;16.25;9.65;;;3.00;79.10;;;;;;5037559;28;20369;-34
2022/01/10 11:01:58;;;;;;;19.80;11.00;;;3.00;79.00;;;;;;5037632;28;20137;-43
2022/01/10 11:04:24;;;;;;;18.23;10.63;;;3.00;79.00;;;;;;5037242;28;20072;-33
2022/01/10 11:06:51;;;;;;;15.65;10.23;;;3.00;79.00;;;;;;5037151;28;20117;-34
2022/01/10 11:09:18;;;;;;;33.67;20.10;;;3.00;78.90;;;;;;5039756;28;20033;-35
2022/01/10 11:11:45;;;;;;;62.58;34.90;;;3.00;78.60;;;;;;5037098;28;20033;-34
2022/01/10 11:14:17;;;;;;;76.40;44.17;;;3.00;78.60;;;;;;5037091;28;20038;-34
2022/01/10 11:16:45;;;;;;;27.25;16.98;;;3.00;78.70;;;;;;5037680;28;20034;-37
2022/01/10 11:19:16;;;;;;;23.92;12.65;;;3.00;78.80;;;;;;5037044;28;20104;-45
2022/01/10 11:21:51;;;;;;;18.95;11.30;;;3.00;78.80;;;;;;5037066;28;20033;-44
2022/01/10 11:24:50;;;;;;;26.10;14.25;;;3.00;78.60;;;;;;5036220;28;20034;-44
2022/01/10 11:27:35;;;;;;;25.50;12.02;;;3.00;78.60;;;;;;5036430;28;20060;-44
2022/01/10 11:30:30;;;;;;;26.25;12.40;;;3.00;78.40;;;;;;5036875;28;20088;-43
2022/01/10 11:33:05;;;;;;;23.70;12.55;;;3.00;78.50;;;;;;5036151;28;20440;-44
2022/01/10 11:35:43;;;;;;;22.48;12.05;;;2.90;78.40;;;;;;5036727;28;20037;-44
2022/01/10 11:38:18;;;;;;;23.77;12.98;;;2.90;78.20;;;;;;5035610;28;20026;-43
2022/01/10 11:40:46;;;;;;;24.35;12.63;;;2.90;78.40;;;;;;5035128;28;20326;-42
2022/01/10 11:43:36;;;;;;;24.17;13.02;;;2.80;78.40;;;;;;5036290;28;20067;-44
2022/01/10 11:46:27;;;;;;;29.00;14.27;;;2.80;78.30;;;;;;5036369;28;20037;-44
2022/01/10 11:48:57;;;;;;;24.08;12.85;;;2.80;78.50;;;;;;5036081;28;20054;-44
2022/01/10 11:51:36;;;;;;;26.00;13.27;;;2.80;78.60;;;;;;5036315;28;20034;-42
2022/01/10 11:54:18;;;;;;;25.25;12.95;;;2.80;78.50;;;;;;5036771;28;20044;-44
2022/01/10 11:56:46;;;;;;;24.63;13.63;;;2.80;78.60;;;;;;5036387;28;20175;-44
2022/01/10 11:59:15;;;;;;;22.73;12.95;;;2.80;78.40;;;;;;5036397;28;20041;-44
2022/01/10 12:02:04;;;;;;;25.42;12.45;;;2.80;78.40;;;;;;5035543;28;20045;-44
2022/01/10 12:04:49;;;;;;;25.23;12.95;;;2.70;78.30;;;;;;5036145;28;20045;-44
2022/01/10 12:07:17;;;;;;;23.50;12.45;;;2.80;78.20;;;;;;5036538;28;20033;-42
2022/01/10 12:09:46;;;;;;;23.80;11.95;;;2.70;78.20;;;;;;5036380;28;20044;-43
2022/01/10 12:12:18;;;;;;;24.40;13.38;;;2.70;78.20;;;;;;5036324;28;20033;-42
2022/01/10 12:14:45;;;;;;;23.85;11.70;;;2.70;78.30;;;;;;5036071;28;20041;-42
2022/01/10 12:17:12;;;;;;;21.05;11.40;;;2.70;78.10;;;;;;5036088;28;20124;-43
2022/01/10 12:19:39;;;;;;;22.13;11.52;;;2.70;77.70;;;;;;5035976;28;20025;-44
2022/01/10 12:22:06;;;;;;;22.38;11.98;;;2.60;77.50;;;;;;5036364;28;20075;-43
2022/01/10 12:24:36;;;;;;;27.63;13.93;;;2.60;77.40;;;;;;5035337;28;20033;-43
2022/01/10 12:27:05;;;;;;;25.95;13.40;;;2.60;77.50;;;;;;5035766;28;20041;-44
2022/01/10 12:29:31;;;;;;;26.67;14.63;;;2.50;77.60;;;;;;5035823;28;20072;-45
2022/01/10 12:31:58;;;;;;;29.10;15.38;;;2.60;77.70;;;;;;5035892;28;20041;-44
2022/01/10 12:34:24;;;;;;;29.48;15.52;;;2.60;78.40;;;;;;5035631;28;20061;-44
2022/01/10 12:36:49;;;;;;;27.10;13.60;;;2.50;77.70;;;;;;5035856;28;20072;-43
2022/01/10 12:39:22;;;;;;;27.02;15.18;;;2.50;77.70;;;;;;5035655;28;20049;-44
2022/01/10 12:41:49;;;;;;;24.95;13.75;;;2.50;77.80;;;;;;5035794;28;20052;-44
2022/01/10 12:44:15;;;;;;;26.05;14.63;;;2.50;77.80;;;;;;5035811;28;20360;-44
2022/01/10 12:46:41;;;;;;;26.63;14.10;;;2.50;77.70;;;;;;5035412;28;20029;-43
2022/01/10 12:49:09;;;;;;;30.98;15.43;;;2.50;77.70;;;;;;5035338;28;20049;-44
2022/01/10 12:51:49;;;;;;;25.48;14.45;;;2.50;77.90;;;;;;5035492;28;20038;-45